Airfield :
LOGIN :

Register | Disclaimer

   EN    FR    IT 

 










Legend :    VFR   Marginal VFR   IFR   Intensive IFR   Very Intensive IFR
Visi :
Ceiling :
>= 8 km
>= 3000ft
5 to 8 km
1000 to 3000 ft
1500m to 5 km
500 to 1000 ft
800 to 1500m
200 to 500 ft
< 800m
< 200 ft
Symbols :   Thunderstorms  Fog  Heavy snow  Heavy precipitations  Wind > 20 kt
SIGMETs :     Misc.  Thunderstorms  Icing  Turbulence  Mountain Waves  Volcanic Ashes







- Airport Elevation : 436 ft
- IATA code : ANG
- Download approach charts


LFBU - Angoulême Brie Champniers

CURRENT METAR :
  • 210400Z AUTO 10001KT CAVOK 11/09 Q1018

EXPIRED METARs :
  • 210330Z AUTO 16003KT CAVOK 12/10 Q1019
  • 210300Z AUTO 14003KT 100V160 CAVOK 12/09 Q1019
  • 210230Z AUTO VRB03KT CAVOK 12/10 Q1019
  • 210200Z AUTO 10003KT CAVOK 12/10 Q1019
  • 210130Z AUTO VRB03KT CAVOK 11/09 Q1019

TAF TAF LFBU
Valid from the 20 at 18:00 until the 21 at 18:00 UTC


201700Z 2018/2118 02006KT CAVOK
TEMPO 2018/2021 VRB15G30KT SHRA BKN060TCU
PROB30
TEMPO 2018/2020 3000 TSRA BKN050CB
TEMPO 2109/2118 -SHRA
PROB40
TEMPO 2112/2116 VRB15G25KT SHRA BKN050TCU
PROB30
TEMPO 2112/2116 -TSRA BKN050CB
No reported NOTAMs for that airfield.



MET'MAP, your aeronautical weather chart ! - Copyright ORBIFLY December 2007 - Disclaimer

ORBIFLY MET'MAP TEAM :

Programming & Development : Alexandra Zaïnal
Concept & Development : Baudouin d'Aumeries
Co-Development & Prog : Marc-Olivier Méhu
Technical & hardware support : Manuel Goepfert

Contact : metmap@orbifly.com




SOURCES & CREDITS :

   NOAA